sensor_id;sensor_type;location;lat;lon;timestamp;pressure;altitude;pressure_sealevel;temperature;humidity
71795;BME280;59641;45.188;5.712;2023-10-19T00:02:05;97838.56;;;21.01;65.81
71795;BME280;59641;45.188;5.712;2023-10-19T00:04:31;97845.63;;;21.02;65.29
71795;BME280;59641;45.188;5.712;2023-10-19T00:06:57;97836.97;;;21.00;65.05
71795;BME280;59641;45.188;5.712;2023-10-19T00:09:23;97834.91;;;20.97;64.94
71795;BME280;59641;45.188;5.712;2023-10-19T00:11:48;97836.81;;;20.97;65.07
71795;BME280;59641;45.188;5.712;2023-10-19T00:14:17;97835.53;;;20.94;65.06
71795;BME280;59641;45.188;5.712;2023-10-19T00:16:43;97833.16;;;20.93;65.08
71795;BME280;59641;45.188;5.712;2023-10-19T00:19:27;97820.13;;;20.90;64.82
71795;BME280;59641;45.188;5.712;2023-10-19T00:21:53;97816.94;;;20.88;65.01
71795;BME280;59641;45.188;5.712;2023-10-19T00:24:33;97817.94;;;20.83;65.34
71795;BME280;59641;45.188;5.712;2023-10-19T00:26:58;97816.31;;;20.82;64.90
71795;BME280;59641;45.188;5.712;2023-10-19T00:29:31;97814.72;;;20.81;65.48
71795;BME280;59641;45.188;5.712;2023-10-19T00:32:00;97805.59;;;20.77;65.31
71795;BME280;59641;45.188;5.712;2023-10-19T00:34:27;97806.88;;;20.79;65.14
71795;BME280;59641;45.188;5.712;2023-10-19T00:36:54;97805.28;;;20.78;65.06
71795;BME280;59641;45.188;5.712;2023-10-19T00:39:21;97798.56;;;20.76;65.27
71795;BME280;59641;45.188;5.712;2023-10-19T00:41:47;97791.00;;;20.73;65.30
71795;BME280;59641;45.188;5.712;2023-10-19T00:44:13;97783.19;;;20.71;65.17
71795;BME280;59641;45.188;5.712;2023-10-19T00:46:42;97778.81;;;20.70;65.63
71795;BME280;59641;45.188;5.712;2023-10-19T00:49:08;97778.03;;;20.70;65.58
71795;BME280;59641;45.188;5.712;2023-10-19T00:51:39;97777.25;;;20.69;66.02
71795;BME280;59641;45.188;5.712;2023-10-19T00:54:15;97782.34;;;20.71;66.07
71795;BME280;59641;45.188;5.712;2023-10-19T00:56:43;97776.59;;;20.72;66.09
71795;BME280;59641;45.188;5.712;2023-10-19T00:59:19;97780.09;;;20.73;65.96
71795;BME280;59641;45.188;5.712;2023-10-19T01:01:55;97783.97;;;20.72;66.00
71795;BME280;59641;45.188;5.712;2023-10-19T01:04:28;97768.72;;;20.71;66.34
71795;BME280;59641;45.188;5.712;2023-10-19T01:06:58;97758.63;;;20.71;66.17
71795;BME280;59641;45.188;5.712;2023-10-19T01:09:30;97756.72;;;20.72;65.89
71795;BME280;59641;45.188;5.712;2023-10-19T01:12:01;97757.81;;;20.71;66.25
71795;BME280;59641;45.188;5.712;2023-10-19T01:14:32;97748.53;;;20.72;66.23
71795;BME280;59641;45.188;5.712;2023-10-19T01:16:57;97737.28;;;20.73;66.31
71795;BME280;59641;45.188;5.712;2023-10-19T01:19:23;97733.78;;;20.73;66.03
71795;BME280;59641;45.188;5.712;2023-10-19T01:21:49;97728.00;;;20.74;66.44
71795;BME280;59641;45.188;5.712;2023-10-19T01:24:19;97726.88;;;20.75;66.31
71795;BME280;59641;45.188;5.712;2023-10-19T01:26:51;97726.06;;;20.75;66.20
71795;BME280;59641;45.188;5.712;2023-10-19T01:29:19;97719.81;;;20.74;66.29
71795;BME280;59641;45.188;5.712;2023-10-19T01:31:51;97720.94;;;20.73;66.15
71795;BME280;59641;45.188;5.712;2023-10-19T01:34:21;97719.34;;;20.72;66.34
71795;BME280;59641;45.188;5.712;2023-10-19T01:36:47;97722.56;;;20.74;65.92
71795;BME280;59641;45.188;5.712;2023-10-19T01:39:15;97712.31;;;20.71;66.31
71795;BME280;59641;45.188;5.712;2023-10-19T01:41:43;97714.69;;;20.73;66.09
71795;BME280;59641;45.188;5.712;2023-10-19T01:44:09;97716.63;;;20.72;66.45
71795;BME280;59641;45.188;5.712;2023-10-19T01:46:39;97717.91;;;20.75;66.24
71795;BME280;59641;45.188;5.712;2023-10-19T01:49:05;97705.72;;;20.72;66.29
71795;BME280;59641;45.188;5.712;2023-10-19T01:51:34;97704.59;;;20.73;65.78
71795;BME280;59641;45.188;5.712;2023-10-19T01:54:08;97713.09;;;20.72;65.85
71795;BME280;59641;45.188;5.712;2023-10-19T01:56:34;97693.53;;;20.70;66.08
71795;BME280;59641;45.188;5.712;2023-10-19T01:59:02;97695.47;;;20.69;66.15
71795;BME280;59641;45.188;5.712;2023-10-19T02:01:29;97699.31;;;20.68;66.38
71795;BME280;59641;45.188;5.712;2023-10-19T02:04:02;97704.75;;;20.68;66.41
71795;BME280;59641;45.188;5.712;2023-10-19T02:06:34;97703.66;;;20.69;66.57
71795;BME280;59641;45.188;5.712;2023-10-19T02:09:05;97686.16;;;20.70;66.06
71795;BME280;59641;45.188;5.712;2023-10-19T02:11:50;97686.50;;;20.69;65.65
71795;BME280;59641;45.188;5.712;2023-10-19T02:14:18;97673.88;;;20.64;66.06
71795;BME280;59641;45.188;5.712;2023-10-19T02:16:47;97669.03;;;20.61;65.95
71795;BME280;59641;45.188;5.712;2023-10-19T02:19:16;97674.84;;;20.59;66.17
71795;BME280;59641;45.188;5.712;2023-10-19T02:21:41;97668.59;;;20.59;66.57
71795;BME280;59641;45.188;5.712;2023-10-19T02:24:08;97663.94;;;20.59;66.48
71795;BME280;59641;45.188;5.712;2023-10-19T02:26:35;97657.34;;;20.60;66.76
71795;BME280;59641;45.188;5.712;2023-10-19T02:29:02;97656.25;;;20.61;66.67
71795;BME280;59641;45.188;5.712;2023-10-19T02:31:36;97659.41;;;20.63;66.54
71795;BME280;59641;45.188;5.712;2023-10-19T02:34:06;97648.84;;;20.62;66.62
71795;BME280;59641;45.188;5.712;2023-10-19T02:36:32;97646.63;;;20.64;66.28
71795;BME280;59641;45.188;5.712;2023-10-19T02:39:00;97641.47;;;20.62;66.54
71795;BME280;59641;45.188;5.712;2023-10-19T02:41:32;97636.34;;;20.61;66.28
71795;BME280;59641;45.188;5.712;2023-10-19T02:44:00;97624.19;;;20.58;66.12
71795;BME280;59641;45.188;5.712;2023-10-19T02:46:31;97620.19;;;20.56;66.27
71795;BME280;59641;45.188;5.712;2023-10-19T02:49:05;97618.09;;;20.53;66.54
71795;BME280;59641;45.188;5.712;2023-10-19T02:51:35;97613.31;;;20.50;66.36
71795;BME280;59641;45.188;5.712;2023-10-19T02:54:02;97609.75;;;20.49;66.57
71795;BME280;59641;45.188;5.712;2023-10-19T02:56:28;97602.72;;;20.48;66.71
71795;BME280;59641;45.188;5.712;2023-10-19T02:58:55;97595.69;;;20.47;66.82
71795;BME280;59641;45.188;5.712;2023-10-19T03:01:27;97580.94;;;20.48;66.79
71795;BME280;59641;45.188;5.712;2023-10-19T03:04:00;97583.66;;;20.48;66.68
71795;BME280;59641;45.188;5.712;2023-10-19T03:06:30;97587.16;;;20.49;66.72
71795;BME280;59641;45.188;5.712;2023-10-19T03:08:59;97579.78;;;20.49;66.99
71795;BME280;59641;45.188;5.712;2023-10-19T03:11:30;97576.75;;;20.51;67.22
71795;BME280;59641;45.188;5.712;2023-10-19T03:13:58;97582.66;;;20.53;66.78
71795;BME280;59641;45.188;5.712;2023-10-19T03:16:23;97597.09;;;20.53;66.96
71795;BME280;59641;45.188;5.712;2023-10-19T03:18:50;97588.13;;;20.53;66.98
71795;BME280;59641;45.188;5.712;2023-10-19T03:21:18;97588.91;;;20.53;66.88
71795;BME280;59641;45.188;5.712;2023-10-19T03:23:44;97570.97;;;20.52;66.62
71795;BME280;59641;45.188;5.712;2023-10-19T03:26:09;97577.06;;;20.49;66.41
71795;BME280;59641;45.188;5.712;2023-10-19T03:28:44;97576.94;;;20.46;66.84
71795;BME280;59641;45.188;5.712;2023-10-19T03:31:10;97563.19;;;20.42;67.08
71795;BME280;59641;45.188;5.712;2023-10-19T03:33:44;97569.44;;;20.42;66.94
71795;BME280;59641;45.188;5.712;2023-10-19T03:36:09;97565.91;;;20.42;67.02
71795;BME280;59641;45.188;5.712;2023-10-19T03:38:39;97562.38;;;20.41;67.14
71795;BME280;59641;45.188;5.712;2023-10-19T03:41:06;97562.38;;;20.41;66.58
71795;BME280;59641;45.188;5.712;2023-10-19T03:43:33;97549.88;;;20.40;67.13
71795;BME280;59641;45.188;5.712;2023-10-19T03:45:58;97551.47;;;20.41;67.00
71795;BME280;59641;45.188;5.712;2023-10-19T03:48:29;97558.06;;;20.40;66.93
71795;BME280;59641;45.188;5.712;2023-10-19T03:51:04;97555.34;;;20.40;67.35
71795;BME280;59641;45.188;5.712;2023-10-19T03:53:30;97556.13;;;20.41;67.27
71795;BME280;59641;45.188;5.712;2023-10-19T03:55:57;97548.75;;;20.41;66.91
71795;BME280;59641;45.188;5.712;2023-10-19T03:58:22;97549.88;;;20.40;67.20
71795;BME280;59641;45.188;5.712;2023-10-19T04:00:48;97545.22;;;20.41;67.22
71795;BME280;59641;45.188;5.712;2023-10-19T04:03:16;97539.78;;;20.41;67.29
71795;BME280;59641;45.188;5.712;2023-10-19T04:05:49;97539.00;;;20.40;67.12
71795;BME280;59641;45.188;5.712;2023-10-19T04:08:16;97541.25;;;20.38;67.13
71795;BME280;59641;45.188;5.712;2023-10-19T04:10:46;97537.72;;;20.38;67.33
71795;BME280;59641;45.188;5.712;2023-10-19T04:13:31;97525.22;;;20.37;67.04
71795;BME280;59641;45.188;5.712;2023-10-19T04:15:57;97528.28;;;20.35;67.22
71795;BME280;59641;45.188;5.712;2023-10-19T04:18:22;97517.72;;;20.34;67.40
71795;BME280;59641;45.188;5.712;2023-10-19T04:20:50;97514.66;;;20.35;67.76
71795;BME280;59641;45.188;5.712;2023-10-19T04:23:19;97513.53;;;20.36;67.41
71795;BME280;59641;45.188;5.712;2023-10-19T04:25:47;97509.69;;;20.37;67.78
71795;BME280;59641;45.188;5.712;2023-10-19T04:28:12;97494.63;;;20.40;67.73
71795;BME280;59641;45.188;5.712;2023-10-19T04:30:41;97489.97;;;20.40;67.40
71795;BME280;59641;45.188;5.712;2023-10-19T04:33:06;97493.78;;;20.39;67.50
71795;BME280;59641;45.188;5.712;2023-10-19T04:35:36;97500.06;;;20.40;67.30
71795;BME280;59641;45.188;5.712;2023-10-19T04:38:04;97494.28;;;20.41;67.70
71795;BME280;59641;45.188;5.712;2023-10-19T04:40:31;97486.56;;;20.43;68.03
71795;BME280;59641;45.188;5.712;2023-10-19T04:42:56;97491.69;;;20.45;67.34
71795;BME280;59641;45.188;5.712;2023-10-19T04:45:22;97485.09;;;20.46;67.40
71795;BME280;59641;45.188;5.712;2023-10-19T04:47:51;97485.56;;;20.48;67.40
71795;BME280;59641;45.188;5.712;2023-10-19T04:50:17;97469.56;;;20.47;67.52
71795;BME280;59641;45.188;5.712;2023-10-19T04:52:43;97472.28;;;20.47;67.23
71795;BME280;59641;45.188;5.712;2023-10-19T04:55:08;97471.84;;;20.45;67.25
71795;BME280;59641;45.188;5.712;2023-10-19T04:57:33;97467.03;;;20.41;67.26
71795;BME280;59641;45.188;5.712;2023-10-19T04:59:59;97475.06;;;20.38;67.34
71795;BME280;59641;45.188;5.712;2023-10-19T05:02:25;97468.00;;;20.37;67.36
71795;BME280;59641;45.188;5.712;2023-10-19T05:04:50;97469.94;;;20.36;66.83
71795;BME280;59641;45.188;5.712;2023-10-19T05:07:15;97477.66;;;20.34;67.46
71795;BME280;59641;45.188;5.712;2023-10-19T05:09:44;97463.22;;;20.34;67.49
71795;BME280;59641;45.188;5.712;2023-10-19T05:12:10;97461.31;;;20.34;67.44
71795;BME280;59641;45.188;5.712;2023-10-19T05:14:37;97460.50;;;20.34;67.63
71795;BME280;59641;45.188;5.712;2023-10-19T05:17:03;97443.06;;;20.35;67.55
71795;BME280;59641;45.188;5.712;2023-10-19T05:19:35;97442.25;;;20.34;67.56
71795;BME280;59641;45.188;5.712;2023-10-19T05:22:04;97456.19;;;20.33;67.84
71795;BME280;59641;45.188;5.712;2023-10-19T05:24:31;97453.97;;;20.35;67.89
71795;BME280;59641;45.188;5.712;2023-10-19T05:26:56;97448.94;;;20.37;67.68
71795;BME280;59641;45.188;5.712;2023-10-19T05:29:22;97448.16;;;20.36;67.49
71795;BME280;59641;45.188;5.712;2023-10-19T05:31:50;97429.09;;;20.36;68.18
71795;BME280;59641;45.188;5.712;2023-10-19T05:34:20;97409.69;;;20.38;67.33
71795;BME280;59641;45.188;5.712;2023-10-19T05:36:45;97408.75;;;20.34;67.88
71795;BME280;59641;45.188;5.712;2023-10-19T05:39:14;97413.75;;;20.32;68.17
71795;BME280;59641;45.188;5.712;2023-10-19T05:41:39;97404.78;;;20.31;68.08
71795;BME280;59641;45.188;5.712;2023-10-19T05:44:05;97410.22;;;20.31;68.21
71795;BME280;59641;45.188;5.712;2023-10-19T05:46:30;97414.53;;;20.32;68.31
71795;BME280;59641;45.188;5.712;2023-10-19T05:48:57;97404.94;;;20.35;67.91
71795;BME280;59641;45.188;5.712;2023-10-19T05:51:23;97381.19;;;20.35;67.75
71795;BME280;59641;45.188;5.712;2023-10-19T05:53:49;97395.16;;;20.34;68.02
71795;BME280;59641;45.188;5.712;2023-10-19T05:56:16;97385.03;;;20.34;68.27
71795;BME280;59641;45.188;5.712;2023-10-19T05:58:42;97382.78;;;20.36;68.06
71795;BME280;59641;45.188;5.712;2023-10-19T06:01:08;97374.63;;;20.36;67.99
71795;BME280;59641;45.188;5.712;2023-10-19T06:03:33;97375.41;;;20.37;67.87
71795;BME280;59641;45.188;5.712;2023-10-19T06:05:58;97383.25;;;20.38;67.91
71795;BME280;59641;45.188;5.712;2023-10-19T06:08:24;97377.03;;;20.38;67.89
71795;BME280;59641;45.188;5.712;2023-10-19T06:10:52;97376.66;;;20.39;67.98
71795;BME280;59641;45.188;5.712;2023-10-19T06:13:19;97377.50;;;20.40;67.07
71795;BME280;59641;45.188;5.712;2023-10-19T06:15:44;97377.81;;;20.38;67.92
71795;BME280;59641;45.188;5.712;2023-10-19T06:18:09;97368.06;;;20.37;67.40
71795;BME280;59641;45.188;5.712;2023-10-19T06:20:36;97385.84;;;20.35;67.67
71795;BME280;59641;45.188;5.712;2023-10-19T06:23:01;97388.59;;;20.35;67.66
71795;BME280;59641;45.188;5.712;2023-10-19T06:25:30;97366.44;;;20.36;67.35
71795;BME280;59641;45.188;5.712;2023-10-19T06:27:56;97378.81;;;20.34;67.35
71795;BME280;59641;45.188;5.712;2023-10-19T06:30:25;97385.72;;;20.31;67.52
71795;BME280;59641;45.188;5.712;2023-10-19T06:32:52;97383.00;;;20.31;67.50
71795;BME280;59641;45.188;5.712;2023-10-19T06:35:19;97372.56;;;20.33;67.69
71795;BME280;59641;45.188;5.712;2023-10-19T06:37:44;97368.69;;;20.34;67.46
71795;BME280;59641;45.188;5.712;2023-10-19T06:40:10;97377.69;;;20.35;67.53
71795;BME280;59641;45.188;5.712;2023-10-19T06:42:41;97366.78;;;20.35;67.74
71795;BME280;59641;45.188;5.712;2023-10-19T06:45:07;97352.34;;;20.34;67.28
71795;BME280;59641;45.188;5.712;2023-10-19T06:47:33;97339.09;;;20.33;67.15
71795;BME280;59641;45.188;5.712;2023-10-19T06:50:05;97352.25;;;20.31;67.31
71795;BME280;59641;45.188;5.712;2023-10-19T06:52:33;97343.28;;;20.30;67.34
71795;BME280;59641;45.188;5.712;2023-10-19T06:55:01;97354.97;;;20.31;67.44
71795;BME280;59641;45.188;5.712;2023-10-19T06:57:27;97349.63;;;20.34;67.21
71795;BME280;59641;45.188;5.712;2023-10-19T06:59:52;97350.00;;;20.33;67.20
71795;BME280;59641;45.188;5.712;2023-10-19T07:02:18;97335.22;;;20.34;67.42
71795;BME280;59641;45.188;5.712;2023-10-19T07:04:46;97332.81;;;20.32;67.22
71795;BME280;59641;45.188;5.712;2023-10-19T07:07:12;97344.53;;;20.33;67.56
71795;BME280;59641;45.188;5.712;2023-10-19T07:09:38;97345.00;;;20.35;67.20
71795;BME280;59641;45.188;5.712;2023-10-19T07:12:04;97347.72;;;20.35;67.39
71795;BME280;59641;45.188;5.712;2023-10-19T07:14:32;97334.13;;;20.35;67.08
71795;BME280;59641;45.188;5.712;2023-10-19T07:16:57;97351.56;;;20.34;67.16
71795;BME280;59641;45.188;5.712;2023-10-19T07:19:23;97358.28;;;20.36;67.39
71795;BME280;59641;45.188;5.712;2023-10-19T07:21:48;97358.75;;;20.38;67.22
71795;BME280;59641;45.188;5.712;2023-10-19T07:24:16;97354.09;;;20.39;66.80
71795;BME280;59641;45.188;5.712;2023-10-19T07:26:44;97354.44;;;20.37;66.67
71795;BME280;59641;45.188;5.712;2023-10-19T07:29:19;97352.81;;;20.36;66.79
71795;BME280;59641;45.188;5.712;2023-10-19T07:31:45;97348.53;;;20.35;66.67
71795;BME280;59641;45.188;5.712;2023-10-19T07:34:10;97351.56;;;20.34;67.05
71795;BME280;59641;45.188;5.712;2023-10-19T07:36:40;97361.34;;;20.35;66.88
71795;BME280;59641;45.188;5.712;2023-10-19T07:39:07;97361.00;;;20.36;66.84
71795;BME280;59641;45.188;5.712;2023-10-19T07:41:39;97349.78;;;20.38;66.91
71795;BME280;59641;45.188;5.712;2023-10-19T07:44:05;97344.81;;;20.40;66.48
71795;BME280;59641;45.188;5.712;2023-10-19T07:46:30;97338.53;;;20.39;66.49
71795;BME280;59641;45.188;5.712;2023-10-19T07:48:57;97320.13;;;20.36;66.73
71795;BME280;59641;45.188;5.712;2023-10-19T07:51:24;97325.94;;;20.35;66.90
71795;BME280;59641;45.188;5.712;2023-10-19T07:53:50;97329.78;;;20.34;66.83
71795;BME280;59641;45.188;5.712;2023-10-19T07:56:16;97313.13;;;20.35;67.15
71795;BME280;59641;45.188;5.712;2023-10-19T07:58:42;97314.69;;;20.36;66.86
71795;BME280;59641;45.188;5.712;2023-10-19T08:01:07;97319.03;;;20.37;66.94
71795;BME280;59641;45.188;5.712;2023-10-19T08:03:33;97301.53;;;20.38;67.22
71795;BME280;59641;45.188;5.712;2023-10-19T08:05:59;97307.94;;;20.42;67.00
71795;BME280;59641;45.188;5.712;2023-10-19T08:08:24;97307.94;;;20.42;66.93
71795;BME280;59641;45.188;5.712;2023-10-19T08:10:50;97294.41;;;20.46;67.06
71795;BME280;59641;45.188;5.712;2023-10-19T08:13:16;97291.00;;;20.49;67.03
71795;BME280;59641;45.188;5.712;2023-10-19T08:15:42;97293.88;;;20.53;66.84
71795;BME280;59641;45.188;5.712;2023-10-19T08:18:07;97286.31;;;20.58;67.15
71795;BME280;59641;45.188;5.712;2023-10-19T08:20:32;97279.84;;;20.63;66.47
71795;BME280;59641;45.188;5.712;2023-10-19T08:23:01;97268.97;;;20.63;66.97
71795;BME280;59641;45.188;5.712;2023-10-19T08:25:27;97262.84;;;20.66;66.80
71795;BME280;59641;45.188;5.712;2023-10-19T08:27:54;97248.88;;;20.68;66.47
71795;BME280;59641;45.188;5.712;2023-10-19T08:30:23;97245.34;;;20.67;66.34
71795;BME280;59641;45.188;5.712;2023-10-19T08:32:49;97249.66;;;20.68;66.03
71795;BME280;59641;45.188;5.712;2023-10-19T08:35:18;97242.75;;;20.71;65.87
71795;BME280;59641;45.188;5.712;2023-10-19T08:37:46;97235.72;;;20.70;65.86
71795;BME280;59641;45.188;5.712;2023-10-19T08:40:12;97232.97;;;20.70;65.82
71795;BME280;59641;45.188;5.712;2023-10-19T08:42:42;97231.06;;;20.70;66.06
71795;BME280;59641;45.188;5.712;2023-10-19T08:45:09;97250.59;;;20.72;65.97
71795;BME280;59641;45.188;5.712;2023-10-19T08:47:37;97248.31;;;20.74;65.92
71795;BME280;59641;45.188;5.712;2023-10-19T08:50:04;97244.13;;;20.77;65.89
71795;BME280;59641;45.188;5.712;2023-10-19T08:52:30;97239.13;;;20.79;65.91
71795;BME280;59641;45.188;5.712;2023-10-19T08:54:57;97252.88;;;20.82;65.77
71795;BME280;59641;45.188;5.712;2023-10-19T08:57:23;97234.25;;;20.84;65.93
71795;BME280;59641;45.188;5.712;2023-10-19T08:59:48;97288.75;;;20.84;65.85
71795;BME280;59641;45.188;5.712;2023-10-19T09:02:14;97242.44;;;20.84;65.56
71795;BME280;59641;45.188;5.712;2023-10-19T09:04:43;97259.94;;;20.83;65.76
71795;BME280;59641;45.188;5.712;2023-10-19T09:07:11;97261.97;;;20.87;65.53
71795;BME280;59641;45.188;5.712;2023-10-19T09:09:36;97257.78;;;20.89;65.82
71795;BME280;59641;45.188;5.712;2023-10-19T09:12:07;97258.69;;;20.93;65.52
71795;BME280;59641;45.188;5.712;2023-10-19T09:14:35;97266.09;;;20.93;65.46
71795;BME280;59641;45.188;5.712;2023-10-19T09:17:01;97276.63;;;20.94;65.08
71795;BME280;59641;45.188;5.712;2023-10-19T09:19:42;97259.47;;;20.94;65.17
71795;BME280;59641;45.188;5.712;2023-10-19T09:22:09;97232.22;;;20.94;65.39
71795;BME280;59641;45.188;5.712;2023-10-19T09:24:45;97234.94;;;20.94;65.33
71795;BME280;59641;45.188;5.712;2023-10-19T09:27:11;97234.25;;;20.97;65.16
71795;BME280;59641;45.188;5.712;2023-10-19T09:29:38;97229.72;;;21.01;64.79
71795;BME280;59641;45.188;5.712;2023-10-19T09:32:05;97236.75;;;21.02;64.77
71795;BME280;59641;45.188;5.712;2023-10-19T09:34:31;97243.34;;;21.01;65.01
71795;BME280;59641;45.188;5.712;2023-10-19T09:36:59;97221.22;;;21.02;64.87
71795;BME280;59641;45.188;5.712;2023-10-19T09:39:27;97222.34;;;21.01;64.81
71795;BME280;59641;45.188;5.712;2023-10-19T09:42:00;97225.41;;;21.00;64.90
71795;BME280;59641;45.188;5.712;2023-10-19T09:44:31;97221.22;;;21.02;64.81
71795;BME280;59641;45.188;5.712;2023-10-19T09:47:02;97230.19;;;21.03;64.88
71795;BME280;59641;45.188;5.712;2023-10-19T09:49:29;97224.03;;;21.06;64.72
71795;BME280;59641;45.188;5.712;2023-10-19T09:51:55;97235.41;;;21.08;64.99
71795;BME280;59641;45.188;5.712;2023-10-19T09:54:27;97242.13;;;21.11;64.85
71795;BME280;59641;45.188;5.712;2023-10-19T09:57:02;97229.72;;;21.13;65.20
71795;BME280;59641;45.188;5.712;2023-10-19T09:59:35;97236.88;;;21.18;65.25
71795;BME280;59641;45.188;5.712;2023-10-19T10:04:32;97221.91;;;21.24;64.84
71795;BME280;59641;45.188;5.712;2023-10-19T10:06:58;97236.31;;;21.24;64.97
71795;BME280;59641;45.188;5.712;2023-10-19T10:09:25;97223.47;;;21.25;64.82
71795;BME280;59641;45.188;5.712;2023-10-19T10:11:52;97227.44;;;21.27;64.79
71795;BME280;59641;45.188;5.712;2023-10-19T10:14:25;97203.03;;;21.31;64.85
71795;BME280;59641;45.188;5.712;2023-10-19T10:17:01;97206.63;;;21.35;64.54
71795;BME280;59641;45.188;5.712;2023-10-19T10:19:27;97204.28;;;21.34;64.43
71795;BME280;59641;45.188;5.712;2023-10-19T10:22:11;97198.56;;;21.39;64.32
71795;BME280;59641;45.188;5.712;2023-10-19T10:24:43;97184.59;;;21.40;64.44
71795;BME280;59641;45.188;5.712;2023-10-19T10:27:09;97185.84;;;21.43;64.23
71795;BME280;59641;45.188;5.712;2023-10-19T10:29:53;97190.41;;;21.51;64.04
71795;BME280;59641;45.188;5.712;2023-10-19T10:35:09;97174.31;;;21.62;64.06
71795;BME280;59641;45.188;5.712;2023-10-19T10:37:37;97180.34;;;21.67;63.92
71795;BME280;59641;45.188;5.712;2023-10-19T10:40:06;97169.97;;;21.73;63.92
71795;BME280;59641;45.188;5.712;2023-10-19T10:42:31;97177.13;;;21.78;63.65
71795;BME280;59641;45.188;5.712;2023-10-19T10:44:56;97169.47;;;21.83;63.40
71795;BME280;59641;45.188;5.712;2023-10-19T10:47:23;97168.09;;;21.89;63.34
71795;BME280;59641;45.188;5.712;2023-10-19T10:49:55;97163.19;;;21.95;63.16
71795;BME280;59641;45.188;5.712;2023-10-19T10:52:32;97148.47;;;22.00;63.07
71795;BME280;59641;45.188;5.712;2023-10-19T10:55:09;97139.59;;;22.03;62.61
71795;BME280;59641;45.188;5.712;2023-10-19T10:57:39;97148.69;;;22.07;62.53
71795;BME280;59641;45.188;5.712;2023-10-19T11:00:13;97148.53;;;22.16;62.42
71795;BME280;59641;45.188;5.712;2023-10-19T11:02:43;97155.56;;;22.17;62.03
71795;BME280;59641;45.188;5.712;2023-10-19T11:05:13;97150.31;;;22.24;61.17
71795;BME280;59641;45.188;5.712;2023-10-19T11:08:08;97138.78;;;22.30;60.72
71795;BME280;59641;45.188;5.712;2023-10-19T11:10:42;97140.81;;;22.33;60.41
71795;BME280;59641;45.188;5.712;2023-10-19T11:13:10;97150.34;;;22.40;60.22
71795;BME280;59641;45.188;5.712;2023-10-19T11:15:37;97134.47;;;22.45;60.13
71795;BME280;59641;45.188;5.712;2023-10-19T11:18:04;97118.97;;;22.49;59.51
71795;BME280;59641;45.188;5.712;2023-10-19T11:20:30;97126.97;;;22.58;59.96
71795;BME280;59641;45.188;5.712;2023-10-19T11:22:56;97109.06;;;22.61;59.07
71795;BME280;59641;45.188;5.712;2023-10-19T11:25:26;97108.47;;;22.67;59.02
71795;BME280;59641;45.188;5.712;2023-10-19T11:27:54;97112.88;;;22.72;58.33
71795;BME280;59641;45.188;5.712;2023-10-19T11:32:49;97102.25;;;22.86;56.64
71795;BME280;59641;45.188;5.712;2023-10-19T11:35:21;97096.97;;;22.93;55.33
71795;BME280;59641;45.188;5.712;2023-10-19T11:40:12;97085.22;;;23.09;54.66
71795;BME280;59641;45.188;5.712;2023-10-19T11:42:38;97070.91;;;23.15;54.21
71795;BME280;59641;45.188;5.712;2023-10-19T11:45:03;97077.69;;;23.22;53.09
71795;BME280;59641;45.188;5.712;2023-10-19T11:47:31;97069.63;;;23.29;53.44
71795;BME280;59641;45.188;5.712;2023-10-19T11:49:56;97064.66;;;23.34;53.31
71795;BME280;59641;45.188;5.712;2023-10-19T11:52:22;97064.75;;;23.38;52.27
71795;BME280;59641;45.188;5.712;2023-10-19T11:54:48;97067.19;;;23.43;52.70
71795;BME280;59641;45.188;5.712;2023-10-19T11:57:13;97057.91;;;23.48;52.21
71795;BME280;59641;45.188;5.712;2023-10-19T11:59:39;97057.59;;;23.53;52.64
71795;BME280;59641;45.188;5.712;2023-10-19T12:02:06;97055.34;;;23.58;51.87
71795;BME280;59641;45.188;5.712;2023-10-19T12:04:32;97055.44;;;23.62;51.44
71795;BME280;59641;45.188;5.712;2023-10-19T12:07:01;97051.59;;;23.67;52.29
71795;BME280;59641;45.188;5.712;2023-10-19T12:09:27;97046.19;;;23.70;51.61
71795;BME280;59641;45.188;5.712;2023-10-19T12:11:53;97035.66;;;23.72;51.58
71795;BME280;59641;45.188;5.712;2023-10-19T12:14:19;97042.84;;;23.77;51.43
71795;BME280;59641;45.188;5.712;2023-10-19T12:16:46;97042.44;;;23.78;51.45
71795;BME280;59641;45.188;5.712;2023-10-19T12:19:12;97040.94;;;23.81;51.48
71795;BME280;59641;45.188;5.712;2023-10-19T12:21:39;97035.09;;;23.83;51.51
71795;BME280;59641;45.188;5.712;2023-10-19T12:24:07;97039.44;;;23.84;50.56
71795;BME280;59641;45.188;5.712;2023-10-19T12:26:33;97035.53;;;23.85;50.51
71795;BME280;59641;45.188;5.712;2023-10-19T12:28:59;97016.38;;;23.85;51.41
71795;BME280;59641;45.188;5.712;2023-10-19T12:31:24;97001.88;;;23.84;51.11
71795;BME280;59641;45.188;5.712;2023-10-19T12:33:50;97004.97;;;23.83;50.84
71795;BME280;59641;45.188;5.712;2023-10-19T12:36:15;96992.44;;;23.81;50.72
71795;BME280;59641;45.188;5.712;2023-10-19T12:38:53;97003.41;;;23.81;51.04
71795;BME280;59641;45.188;5.712;2023-10-19T12:41:20;96988.13;;;23.80;50.85
71795;BME280;59641;45.188;5.712;2023-10-19T12:43:46;96977.16;;;23.80;50.71
71795;BME280;59641;45.188;5.712;2023-10-19T12:46:12;96953.31;;;23.81;50.27
71795;BME280;59641;45.188;5.712;2023-10-19T12:48:39;96947.78;;;23.77;49.54
71795;BME280;59641;45.188;5.712;2023-10-19T12:51:05;96948.22;;;23.79;49.88
71795;BME280;59641;45.188;5.712;2023-10-19T12:53:32;96953.31;;;23.81;49.83
71795;BME280;59641;45.188;5.712;2023-10-19T12:55:58;96947.03;;;23.80;49.63
71795;BME280;59641;45.188;5.712;2023-10-19T12:58:24;96941.56;;;23.80;49.40
71795;BME280;59641;45.188;5.712;2023-10-19T13:00:53;96945.09;;;23.81;49.35
71795;BME280;59641;45.188;5.712;2023-10-19T13:03:19;96941.56;;;23.80;49.46
71795;BME280;59641;45.188;5.712;2023-10-19T13:05:45;96938.81;;;23.80;49.61
71795;BME280;59641;45.188;5.712;2023-10-19T13:08:11;96943.88;;;23.78;49.57
71795;BME280;59641;45.188;5.712;2023-10-19T13:10:41;96923.56;;;23.79;50.17
71795;BME280;59641;45.188;5.712;2023-10-19T13:13:11;96910.63;;;23.76;49.70
71795;BME280;59641;45.188;5.712;2023-10-19T13:15:41;96910.63;;;23.76;49.37